createdAt,value
2022-10-02T00:02:01.028Z,23.46
2022-10-02T00:04:36.959Z,23.48
2022-10-02T00:07:07.392Z,23.47
2022-10-02T00:09:42.270Z,23.45
2022-10-02T00:12:15.693Z,23.42
2022-10-02T00:14:46.278Z,23.45
2022-10-02T00:17:21.867Z,23.44
2022-10-02T00:19:53.810Z,23.44
2022-10-02T00:22:33.355Z,23.43
2022-10-02T00:25:06.597Z,23.41
2022-10-02T00:27:49.848Z,23.44
2022-10-02T00:30:18.970Z,23.43
2022-10-02T00:33:02.433Z,23.42
2022-10-02T00:36:02.382Z,23.42
2022-10-02T00:38:44.713Z,23.41
2022-10-02T00:41:44.391Z,23.41
2022-10-02T00:44:28.168Z,23.40
2022-10-02T00:47:03.341Z,23.39
2022-10-02T00:49:48.789Z,23.37
2022-10-02T00:52:36.768Z,23.37
2022-10-02T00:55:31.448Z,23.36
2022-10-02T00:58:15.968Z,23.34
2022-10-02T01:00:54.860Z,23.35
2022-10-02T01:03:28.218Z,23.36
2022-10-02T01:05:56.399Z,23.36
2022-10-02T01:08:24.617Z,23.37
2022-10-02T01:10:52.701Z,23.36
2022-10-02T01:13:21.696Z,23.36
2022-10-02T01:15:54.408Z,23.36
2022-10-02T01:18:22.830Z,23.37
2022-10-02T01:20:54.429Z,23.35
2022-10-02T01:23:31.592Z,23.33
2022-10-02T01:26:00.179Z,23.32
2022-10-02T01:28:29.257Z,23.33
2022-10-02T01:31:02.262Z,23.34
2022-10-02T01:33:31.183Z,23.32
2022-10-02T01:35:59.239Z,23.32
2022-10-02T01:38:28.575Z,23.30
2022-10-02T01:40:56.802Z,23.29
2022-10-02T01:43:28.568Z,23.29
2022-10-02T01:46:15.001Z,23.28
2022-10-02T01:48:47.232Z,23.26
2022-10-02T01:51:46.471Z,23.26
2022-10-02T01:54:25.547Z,23.24
2022-10-02T01:57:06.422Z,23.23
2022-10-02T01:59:46.397Z,23.22
2022-10-02T02:02:21.290Z,23.21
2022-10-02T02:04:57.517Z,23.21
2022-10-02T02:07:34.983Z,23.21
2022-10-02T02:10:13.391Z,23.21
2022-10-02T02:12:45.482Z,23.21
2022-10-02T02:15:20.064Z,23.20
2022-10-02T02:17:52.214Z,23.20
2022-10-02T02:20:25.168Z,23.21
2022-10-02T02:22:55.183Z,23.21
2022-10-02T02:25:26.295Z,23.21
2022-10-02T02:27:58.606Z,23.19
2022-10-02T02:30:31.005Z,23.18
2022-10-02T02:33:05.508Z,23.18
2022-10-02T02:35:39.094Z,23.17
2022-10-02T02:38:10.010Z,23.18
2022-10-02T02:40:43.449Z,23.18
2022-10-02T02:43:17.297Z,23.16
2022-10-02T02:45:50.209Z,23.16
2022-10-02T02:48:23.847Z,23.15
2022-10-02T02:50:56.254Z,23.13
2022-10-02T02:53:28.043Z,23.12
2022-10-02T02:55:59.844Z,23.11
2022-10-02T02:58:31.285Z,23.10
2022-10-02T03:00:59.496Z,23.09
2022-10-02T03:03:27.603Z,23.08
2022-10-02T03:06:03.322Z,23.07
2022-10-02T03:08:35.792Z,23.07
2022-10-02T03:11:18.729Z,23.06
2022-10-02T03:13:58.358Z,23.07
2022-10-02T03:16:39.623Z,23.06
2022-10-02T03:19:21.009Z,23.05
2022-10-02T03:22:02.260Z,23.05
2022-10-02T03:24:36.415Z,23.04
2022-10-02T03:27:08.900Z,23.05
2022-10-02T03:29:43.766Z,23.05
2022-10-02T03:32:15.084Z,23.05
2022-10-02T03:34:43.669Z,23.03
2022-10-02T03:37:12.545Z,23.03
2022-10-02T03:39:43.987Z,23.03
2022-10-02T03:42:14.664Z,23.02
2022-10-02T03:44:43.095Z,23.01
2022-10-02T03:47:11.100Z,22.99
2022-10-02T03:49:40.100Z,23.00
2022-10-02T03:52:13.450Z,22.99
2022-10-02T03:54:41.625Z,22.99
2022-10-02T03:57:17.688Z,22.98
2022-10-02T03:59:53.698Z,22.97
2022-10-02T04:02:33.323Z,22.98
2022-10-02T04:05:09.490Z,22.98
2022-10-02T04:07:42.253Z,22.97
2022-10-02T04:10:27.606Z,22.97
2022-10-02T04:13:02.110Z,22.97
2022-10-02T04:15:39.858Z,22.95
2022-10-02T04:18:16.025Z,22.96
2022-10-02T04:20:50.361Z,23.00
2022-10-02T04:23:25.845Z,22.99
2022-10-02T04:26:00.000Z,22.96
2022-10-02T04:28:34.928Z,22.93
2022-10-02T04:31:05.617Z,22.92
2022-10-02T04:33:38.241Z,22.92
2022-10-02T04:36:18.415Z,22.91
2022-10-02T04:39:05.190Z,22.91
2022-10-02T04:41:48.986Z,22.92
2022-10-02T04:44:30.925Z,22.92
2022-10-02T04:47:19.736Z,22.92
2022-10-02T04:50:15.942Z,22.92
2022-10-02T04:53:01.023Z,22.93
2022-10-02T04:55:43.293Z,22.92
2022-10-02T04:58:31.115Z,22.92
2022-10-02T05:01:08.976Z,22.92
2022-10-02T05:03:55.569Z,22.91
2022-10-02T05:06:41.551Z,22.89
2022-10-02T05:09:18.645Z,22.88
2022-10-02T05:11:57.853Z,22.89
2022-10-02T05:14:45.931Z,22.87
2022-10-02T05:17:29.605Z,22.87
2022-10-02T05:20:17.149Z,22.87
2022-10-02T05:23:04.508Z,22.87
2022-10-02T05:25:56.848Z,22.86
2022-10-02T05:28:40.648Z,22.86
2022-10-02T05:31:21.523Z,22.85
2022-10-02T05:34:01.447Z,22.85
2022-10-02T05:36:47.237Z,22.85
2022-10-02T05:39:18.507Z,22.85
2022-10-02T05:41:54.850Z,22.84
2022-10-02T05:44:28.378Z,22.84
2022-10-02T05:47:02.756Z,22.83
2022-10-02T05:49:34.864Z,22.82
2022-10-02T05:52:07.561Z,22.80
2022-10-02T05:54:43.174Z,22.83
2022-10-02T05:57:16.605Z,22.83
2022-10-02T05:59:56.565Z,22.83
2022-10-02T06:02:36.751Z,22.82
2022-10-02T06:05:14.938Z,22.81
2022-10-02T06:07:45.835Z,22.80
2022-10-02T06:10:19.073Z,22.79
2022-10-02T06:12:53.468Z,22.76
2022-10-02T06:15:26.290Z,22.73
2022-10-02T06:17:59.790Z,22.72
2022-10-02T06:20:34.498Z,22.74
2022-10-02T06:23:07.962Z,22.72
2022-10-02T06:25:42.585Z,22.70
2022-10-02T06:28:16.267Z,22.70
2022-10-02T06:30:46.613Z,22.71
2022-10-02T06:33:19.753Z,22.70
2022-10-02T06:36:08.458Z,22.71
2022-10-02T06:39:03.352Z,22.69
2022-10-02T06:41:40.893Z,22.69
2022-10-02T06:44:18.084Z,22.71
2022-10-02T06:46:56.929Z,22.70
2022-10-02T06:49:36.485Z,22.71
2022-10-02T06:52:15.936Z,22.72
2022-10-02T06:54:58.612Z,22.74
2022-10-02T06:57:53.839Z,22.76
2022-10-02T07:00:22.419Z,22.83
2022-10-02T07:03:08.504Z,22.86
2022-10-02T07:06:16.502Z,22.86
2022-10-02T07:09:03.068Z,22.84
2022-10-02T07:11:40.283Z,22.81
2022-10-02T07:14:27.375Z,22.75
2022-10-02T07:17:21.521Z,22.73
2022-10-02T07:20:06.117Z,22.71
2022-10-02T07:22:51.507Z,22.69
2022-10-02T07:25:34.101Z,22.69
2022-10-02T07:28:12.121Z,22.69
2022-10-02T07:30:48.895Z,22.67
2022-10-02T07:33:30.038Z,22.66
2022-10-02T07:36:05.294Z,22.66
2022-10-02T07:39:02.731Z,22.64
2022-10-02T07:41:52.986Z,22.64
2022-10-02T07:44:55.908Z,22.65
2022-10-02T07:47:46.055Z,22.64
2022-10-02T07:50:18.755Z,22.70
2022-10-02T07:52:57.579Z,22.69
2022-10-02T07:55:26.679Z,22.68
2022-10-02T07:58:02.525Z,22.67
2022-10-02T08:00:36.236Z,22.63
2022-10-02T08:03:10.115Z,22.63
2022-10-02T08:05:41.569Z,22.63
2022-10-02T08:08:16.289Z,22.61
2022-10-02T08:10:51.483Z,22.61
2022-10-02T08:13:24.079Z,22.58
2022-10-02T08:15:55.215Z,22.58
2022-10-02T08:18:35.554Z,22.57
2022-10-02T08:21:09.695Z,22.57
2022-10-02T08:23:43.304Z,22.57
2022-10-02T08:26:17.778Z,22.57
2022-10-02T08:28:56.283Z,22.58
2022-10-02T08:31:25.242Z,22.57
2022-10-02T08:33:53.436Z,22.57
2022-10-02T08:36:42.988Z,22.58
2022-10-02T08:39:33.918Z,22.59
2022-10-02T08:42:26.677Z,22.60
2022-10-02T08:45:19.509Z,22.64
2022-10-02T08:48:23.124Z,22.64
2022-10-02T08:51:21.523Z,22.66
2022-10-02T08:54:16.006Z,22.70
2022-10-02T08:57:05.981Z,22.73
2022-10-02T09:00:08.396Z,22.73
2022-10-02T09:03:24.125Z,22.74
2022-10-02T09:06:30.256Z,22.75
2022-10-02T09:09:46.639Z,22.76
2022-10-02T09:12:44.080Z,22.73
2022-10-02T09:15:23.301Z,22.73
2022-10-02T09:18:10.079Z,22.74
2022-10-02T09:21:01.512Z,22.75
2022-10-02T09:24:12.545Z,22.79
2022-10-02T09:27:00.481Z,22.81
2022-10-02T09:30:08.974Z,22.83
2022-10-02T09:33:38.830Z,22.87
2022-10-02T09:36:45.307Z,22.93
2022-10-02T09:39:48.798Z,22.97
2022-10-02T09:42:38.476Z,22.99
2022-10-02T09:45:40.137Z,23.01
2022-10-02T09:48:48.613Z,23.04
2022-10-02T09:51:57.219Z,23.08
2022-10-02T09:54:55.881Z,23.11
2022-10-02T09:57:54.868Z,23.09
2022-10-02T10:00:37.166Z,23.05
2022-10-02T10:03:37.611Z,23.03
2022-10-02T10:06:45.697Z,22.99
2022-10-02T10:09:46.468Z,22.99
2022-10-02T10:13:01.037Z,23.01
2022-10-02T10:16:13.709Z,23.00
2022-10-02T10:19:11.694Z,22.96
2022-10-02T10:22:02.319Z,22.94
2022-10-02T10:24:51.769Z,22.94
2022-10-02T10:27:56.072Z,22.96
2022-10-02T10:31:04.659Z,22.97
2022-10-02T10:34:09.377Z,22.98
2022-10-02T10:37:14.550Z,23.00
2022-10-02T10:40:24.455Z,23.01
2022-10-02T10:43:16.433Z,23.02
2022-10-02T10:45:55.891Z,23.05
2022-10-02T10:48:49.182Z,23.08
2022-10-02T10:51:38.752Z,23.10
2022-10-02T10:54:40.086Z,23.14
2022-10-02T10:57:22.849Z,23.17
2022-10-02T11:00:13.652Z,23.18
2022-10-02T11:02:54.774Z,23.21
2022-10-02T11:05:39.638Z,23.23
2022-10-02T11:08:30.784Z,23.25
2022-10-02T11:11:11.787Z,23.28
2022-10-02T11:13:55.441Z,23.30
2022-10-02T11:16:49.784Z,23.32
2022-10-02T11:19:37.129Z,23.33
2022-10-02T11:22:21.129Z,23.35
2022-10-02T11:25:32.999Z,23.37
2022-10-02T11:28:51.734Z,23.37
2022-10-02T11:31:59.105Z,23.38
2022-10-02T11:34:43.310Z,23.40
2022-10-02T11:37:31.255Z,23.41
2022-10-02T11:40:40.191Z,23.41
2022-10-02T11:43:32.075Z,23.42
2022-10-02T11:46:06.409Z,23.42
2022-10-02T11:49:26.386Z,23.41
2022-10-02T11:52:21.606Z,23.42
2022-10-02T11:55:04.616Z,23.42
2022-10-02T11:57:46.801Z,23.41
2022-10-02T12:00:39.028Z,23.44
2022-10-02T12:03:17.530Z,23.46
2022-10-02T12:05:58.424Z,23.47
2022-10-02T12:08:42.228Z,23.47
2022-10-02T12:11:19.826Z,23.47
2022-10-02T12:14:09.686Z,23.47
2022-10-02T12:16:51.937Z,23.50
2022-10-02T12:19:33.919Z,23.51
2022-10-02T12:22:29.581Z,23.52
2022-10-02T12:25:33.505Z,23.52
2022-10-02T12:28:13.221Z,23.51
2022-10-02T12:30:45.963Z,23.52
2022-10-02T12:33:33.974Z,23.52
2022-10-02T12:36:23.718Z,23.54
2022-10-02T12:39:04.546Z,23.54
2022-10-02T12:41:48.091Z,23.54
2022-10-02T12:44:53.068Z,23.55
2022-10-02T12:47:48.088Z,23.63
2022-10-02T12:50:26.830Z,23.61
2022-10-02T12:53:22.725Z,23.58
2022-10-02T12:56:41.162Z,23.55
2022-10-02T12:59:18.513Z,23.52
2022-10-02T13:02:11.655Z,23.50
2022-10-02T13:05:14.751Z,23.49
2022-10-02T13:08:13.606Z,23.50
2022-10-02T13:10:46.452Z,23.48
2022-10-02T13:13:31.137Z,23.49
2022-10-02T13:16:08.087Z,23.49
2022-10-02T13:18:59.138Z,23.50
2022-10-02T13:21:38.421Z,23.49
2022-10-02T13:24:19.561Z,23.50
2022-10-02T13:26:55.707Z,23.50
2022-10-02T13:29:42.303Z,23.51
2022-10-02T13:32:23.587Z,23.50
2022-10-02T13:35:18.444Z,23.50
2022-10-02T13:37:57.216Z,23.49
2022-10-02T13:40:30.508Z,23.47
2022-10-02T13:43:24.961Z,23.46
2022-10-02T13:46:01.837Z,23.47
2022-10-02T13:48:42.798Z,23.47
2022-10-02T13:51:18.921Z,23.47
2022-10-02T13:54:13.197Z,23.47
2022-10-02T13:56:50.732Z,23.46
2022-10-02T13:59:45.223Z,23.46
2022-10-02T14:02:22.349Z,23.46
2022-10-02T14:04:58.512Z,23.44
2022-10-02T14:07:41.074Z,23.43
2022-10-02T14:10:22.516Z,23.41
2022-10-02T14:13:17.554Z,23.40
2022-10-02T14:16:09.930Z,23.38
2022-10-02T14:18:54.842Z,23.37
2022-10-02T14:21:30.773Z,23.37
2022-10-02T14:24:56.487Z,23.38
2022-10-02T14:27:57.853Z,23.37
2022-10-02T14:30:37.405Z,23.36
2022-10-02T14:33:16.188Z,23.35
2022-10-02T14:35:52.149Z,23.35
2022-10-02T14:38:30.970Z,23.34
2022-10-02T14:41:09.575Z,23.33
2022-10-02T14:43:59.052Z,23.32
2022-10-02T14:46:40.130Z,23.32
2022-10-02T14:49:44.558Z,23.31
2022-10-02T14:52:29.903Z,23.31
2022-10-02T14:55:15.543Z,23.31
2022-10-02T14:58:14.766Z,23.31
2022-10-02T15:01:00.991Z,23.29
2022-10-02T15:04:04.819Z,23.31
2022-10-02T15:06:56.699Z,23.29
2022-10-02T15:09:28.536Z,23.28
2022-10-02T15:12:09.724Z,23.24
2022-10-02T15:14:47.881Z,23.24
2022-10-02T15:17:45.101Z,23.24
2022-10-02T15:20:23.788Z,23.23
2022-10-02T15:22:59.273Z,23.21
2022-10-02T15:25:49.580Z,23.24
2022-10-02T15:28:41.826Z,23.22
2022-10-02T15:31:21.030Z,23.21
2022-10-02T15:33:58.922Z,23.20
2022-10-02T15:36:46.186Z,23.20
2022-10-02T15:39:44.762Z,23.21
2022-10-02T15:42:19.396Z,23.20
2022-10-02T15:45:15.152Z,23.19
2022-10-02T15:48:07.627Z,23.19
2022-10-02T15:50:51.882Z,23.18
2022-10-02T15:53:33.073Z,23.20
2022-10-02T15:56:16.113Z,23.19
2022-10-02T15:59:00.375Z,23.18
2022-10-02T16:01:44.202Z,23.18
2022-10-02T16:04:25.327Z,23.18
2022-10-02T16:07:36.587Z,23.18
2022-10-02T16:10:18.933Z,23.15
2022-10-02T16:13:01.240Z,23.16
2022-10-02T16:15:40.322Z,23.17
2022-10-02T16:18:35.910Z,23.17
2022-10-02T16:21:26.321Z,23.19
2022-10-02T16:24:08.119Z,23.18
2022-10-02T16:27:02.842Z,23.18
2022-10-02T16:29:41.558Z,23.17
2022-10-02T16:32:18.325Z,23.14
2022-10-02T16:35:10.558Z,23.12
2022-10-02T16:37:45.984Z,23.08
2022-10-02T16:40:28.805Z,23.06
2022-10-02T16:43:28.330Z,23.04
2022-10-02T16:46:05.344Z,23.04
2022-10-02T16:48:46.961Z,23.04
2022-10-02T16:51:28.010Z,23.03
2022-10-02T16:54:04.859Z,23.03
2022-10-02T16:56:40.637Z,23.03
2022-10-02T16:59:16.142Z,23.03
2022-10-02T17:02:15.919Z,23.02
2022-10-02T17:04:49.594Z,23.01
2022-10-02T17:07:41.148Z,23.02
2022-10-02T17:10:20.278Z,23.01
2022-10-02T17:12:56.116Z,23.00
2022-10-02T17:15:33.693Z,23.02
2022-10-02T17:18:13.524Z,23.03
2022-10-02T17:20:48.048Z,23.02
2022-10-02T17:23:24.192Z,23.02
2022-10-02T17:25:59.752Z,23.01
2022-10-02T17:28:35.474Z,23.00
2022-10-02T17:31:23.165Z,23.01
2022-10-02T17:33:55.984Z,23.00
2022-10-02T17:36:33.155Z,22.99
2022-10-02T17:39:30.551Z,22.97
2022-10-02T17:42:09.721Z,22.95
2022-10-02T17:44:56.281Z,22.95
2022-10-02T17:47:37.509Z,22.95
2022-10-02T17:50:33.784Z,22.94
2022-10-02T17:53:33.625Z,22.95
2022-10-02T17:56:28.884Z,22.95
2022-10-02T17:59:23.572Z,22.94
2022-10-02T18:02:03.190Z,22.94
2022-10-02T18:04:45.169Z,22.94
2022-10-02T18:07:37.834Z,22.94
2022-10-02T18:10:20.238Z,22.94
2022-10-02T18:13:14.523Z,22.92
2022-10-02T18:15:55.098Z,22.95
2022-10-02T18:18:32.979Z,22.98
2022-10-02T18:21:23.051Z,22.99
2022-10-02T18:24:18.663Z,22.99
2022-10-02T18:27:03.529Z,22.99
2022-10-02T18:29:54.587Z,22.98
2022-10-02T18:32:44.141Z,22.96
2022-10-02T18:35:34.659Z,22.96
2022-10-02T18:38:13.309Z,22.95
2022-10-02T18:41:01.132Z,22.94
2022-10-02T18:43:45.383Z,22.92
2022-10-02T18:46:23.073Z,22.90
2022-10-02T18:49:20.924Z,22.90
2022-10-02T18:52:16.120Z,22.88
2022-10-02T18:54:58.240Z,22.87
2022-10-02T18:57:42.581Z,22.85
2022-10-02T19:00:21.442Z,22.83
2022-10-02T19:03:17.559Z,22.82
2022-10-02T19:05:53.506Z,22.81
2022-10-02T19:08:28.404Z,22.79
2022-10-02T19:10:56.681Z,22.80
2022-10-02T19:13:28.185Z,22.81
2022-10-02T19:16:00.131Z,22.81
2022-10-02T19:18:30.839Z,22.81
2022-10-02T19:21:06.222Z,22.81
2022-10-02T19:23:38.982Z,22.79
2022-10-02T19:26:17.273Z,22.79
2022-10-02T19:28:48.960Z,22.78
2022-10-02T19:31:22.813Z,22.77
2022-10-02T19:33:54.031Z,22.76
2022-10-02T19:36:25.552Z,22.76
2022-10-02T19:38:58.844Z,22.77
2022-10-02T19:41:27.495Z,22.76
2022-10-02T19:44:02.476Z,22.76
2022-10-02T19:46:39.216Z,22.75
2022-10-02T19:49:14.401Z,22.74
2022-10-02T19:51:45.040Z,22.73
2022-10-02T19:54:19.660Z,22.72
2022-10-02T19:56:51.612Z,22.70
2022-10-02T19:59:24.621Z,22.74
2022-10-02T20:01:54.587Z,22.74
2022-10-02T20:04:25.368Z,22.76
2022-10-02T20:06:58.626Z,22.79
2022-10-02T20:09:33.347Z,22.80
2022-10-02T20:12:06.062Z,22.81
2022-10-02T20:14:41.021Z,22.84
2022-10-02T20:17:12.151Z,22.85
2022-10-02T20:19:44.968Z,22.86
2022-10-02T20:22:23.274Z,22.88
2022-10-02T20:24:57.202Z,22.89
2022-10-02T20:27:35.568Z,22.90
2022-10-02T20:30:11.633Z,22.92
2022-10-02T20:32:46.127Z,22.94
2022-10-02T20:35:20.286Z,22.94
2022-10-02T20:37:51.450Z,22.93
2022-10-02T20:40:25.364Z,22.94
2022-10-02T20:43:00.680Z,22.95
2022-10-02T20:45:36.677Z,22.96
2022-10-02T20:48:55.609Z,22.95
2022-10-02T20:51:45.702Z,22.94
2022-10-02T20:54:46.465Z,22.94
2022-10-02T20:57:59.622Z,22.91
2022-10-02T21:00:33.273Z,22.92
2022-10-02T21:03:22.171Z,22.92
2022-10-02T21:06:18.106Z,22.92
2022-10-02T21:09:11.389Z,22.93
2022-10-02T21:12:15.356Z,22.93
2022-10-02T21:15:07.711Z,22.93
2022-10-02T21:18:11.174Z,22.91
2022-10-02T21:21:24.611Z,22.93
2022-10-02T21:24:35.807Z,22.92
2022-10-02T21:27:35.679Z,22.91
2022-10-02T21:30:11.357Z,22.90
2022-10-02T21:32:55.289Z,22.91
2022-10-02T21:35:39.817Z,22.90
2022-10-02T21:38:53.109Z,22.89
2022-10-02T21:41:58.108Z,22.87
2022-10-02T21:45:09.019Z,22.86
2022-10-02T21:48:21.385Z,22.83
2022-10-02T21:51:25.263Z,22.83
2022-10-02T21:54:29.088Z,22.83
2022-10-02T21:57:36.617Z,22.83
2022-10-02T22:00:21.245Z,22.82
2022-10-02T22:03:29.452Z,22.81
2022-10-02T22:06:25.599Z,22.80
2022-10-02T22:09:13.322Z,22.80
2022-10-02T22:11:56.536Z,22.80
2022-10-02T22:14:32.915Z,22.80
2022-10-02T22:17:13.990Z,22.80
2022-10-02T22:20:07.482Z,22.79
2022-10-02T22:22:51.180Z,22.79
2022-10-02T22:25:32.667Z,22.80
2022-10-02T22:28:14.887Z,22.80
2022-10-02T22:31:02.058Z,22.81
2022-10-02T22:33:43.768Z,22.80
2022-10-02T22:36:37.354Z,22.81
2022-10-02T22:39:14.077Z,22.78
2022-10-02T22:41:50.068Z,22.81
2022-10-02T22:44:26.246Z,22.80
2022-10-02T22:47:01.296Z,22.79
2022-10-02T22:49:36.608Z,22.78
2022-10-02T22:52:10.052Z,22.77
2022-10-02T22:54:46.457Z,22.77
2022-10-02T22:57:21.069Z,22.76
2022-10-02T22:59:55.826Z,22.77
2022-10-02T23:02:31.844Z,22.79
2022-10-02T23:05:10.099Z,22.80
2022-10-02T23:07:46.546Z,22.79
2022-10-02T23:10:25.149Z,22.79
2022-10-02T23:13:01.288Z,22.79
2022-10-02T23:15:41.918Z,22.79
2022-10-02T23:18:25.027Z,22.78
2022-10-02T23:21:02.008Z,22.78
2022-10-02T23:23:36.789Z,22.77
2022-10-02T23:26:12.391Z,22.76
2022-10-02T23:28:50.233Z,22.76
2022-10-02T23:31:29.732Z,22.75
2022-10-02T23:34:17.284Z,22.74
2022-10-02T23:36:52.293Z,22.73
2022-10-02T23:39:27.578Z,22.74
2022-10-02T23:41:58.245Z,22.73
2022-10-02T23:44:33.736Z,22.71
2022-10-02T23:47:10.738Z,22.70
2022-10-02T23:49:43.420Z,22.69
2022-10-02T23:52:28.921Z,22.69
2022-10-02T23:55:17.084Z,22.69
2022-10-02T23:58:04.393Z,22.70
